Time;durP1;ratioP1;P1;durP2;ratioP2;P2;SDS_P1;SDS_P2;PMS_P1;PMS_P2;Temp;Humidity;BMP_temperature;BMP_pressure;BME280_temperature;BME280_humidity;BME280_pressure;Samples;Min_cycle;Max_cycle;Signal;HPM_P1;HPM_P2
2022/07/10 00:02:01;;;;;;;5.47;2.22;;;14.50;99.90;;;;;;4913139;29;20050;-79
2022/07/10 00:04:27;;;;;;;8.60;2.90;;;14.50;99.90;;;;;;4934210;29;20044;-79
2022/07/10 00:06:55;;;;;;;6.38;3.08;;;14.40;99.90;;;;;;4911851;29;20519;-78
2022/07/10 00:09:22;;;;;;;7.95;2.40;;;14.30;99.90;;;;;;4902836;29;20032;-78
2022/07/10 00:11:47;;;;;;;6.82;2.53;;;14.40;99.90;;;;;;4913269;29;20027;-76
2022/07/10 00:14:13;;;;;;;7.18;2.53;;;14.40;99.90;;;;;;4922034;29;20135;-76
2022/07/10 00:16:38;;;;;;;8.40;1.73;;;14.40;99.90;;;;;;4918588;29;20464;-74
2022/07/10 00:19:04;;;;;;;4.45;1.98;;;14.50;99.90;;;;;;4925750;29;20028;-75
2022/07/10 00:21:29;;;;;;;11.15;2.17;;;14.50;99.90;;;;;;4899476;29;20028;-75
2022/07/10 00:23:55;;;;;;;5.53;2.35;;;14.50;99.90;;;;;;4923714;29;20384;-76
2022/07/10 00:26:20;;;;;;;12.75;3.05;;;14.50;99.90;;;;;;4918462;29;20038;-75
2022/07/10 00:28:46;;;;;;;3.08;2.15;;;14.50;99.90;;;;;;4918354;29;20024;-76
2022/07/10 00:31:11;;;;;;;7.75;2.65;;;14.50;99.90;;;;;;4935469;29;20035;-77
2022/07/10 00:33:37;;;;;;;7.18;2.20;;;15.80;99.90;;;;;;4935170;29;20039;-76
2022/07/10 00:36:05;;;;;;;4.65;1.90;;;14.70;99.90;;;;;;4918568;29;20024;-77
2022/07/10 00:38:30;;;;;;;4.38;1.70;;;14.70;99.90;;;;;;4935358;29;20444;-77
2022/07/10 00:40:56;;;;;;;6.38;1.88;;;14.70;99.90;;;;;;4917580;29;20038;-74
2022/07/10 00:43:21;;;;;;;7.20;1.50;;;14.60;99.90;;;;;;4935122;29;20036;-74
2022/07/10 00:45:48;;;;;;;6.43;1.75;;;14.70;99.90;;;;;;4935092;29;20107;-73
2022/07/10 00:48:14;;;;;;;5.32;1.50;;;14.80;99.90;;;;;;4935360;29;20027;-72
2022/07/10 00:50:40;;;;;;;9.98;1.67;;;14.80;99.90;;;;;;4935389;29;20043;-73
2022/07/10 00:53:05;;;;;;;5.20;1.40;;;14.80;99.90;;;;;;4918161;29;20034;-77
2022/07/10 00:55:32;;;;;;;5.03;1.30;;;14.80;99.90;;;;;;4934791;29;20035;-78
2022/07/10 00:57:57;;;;;;;6.95;2.15;;;14.80;99.90;;;;;;4918105;29;20020;-77
2022/07/10 01:00:23;;;;;;;3.13;1.40;;;14.90;99.90;;;;;;4918209;29;20091;-74
2022/07/10 01:02:49;;;;;;;6.10;1.63;;;14.90;99.90;;;;;;4935086;29;20031;-73
2022/07/10 01:05:14;;;;;;;3.90;1.67;;;15.00;99.90;;;;;;4934865;29;20032;-73
2022/07/10 01:07:40;;;;;;;4.30;1.65;;;15.10;99.90;;;;;;4934629;29;20020;-73
2022/07/10 01:10:06;;;;;;;4.25;1.80;;;15.00;99.90;;;;;;4934914;29;20034;-72
2022/07/10 01:12:31;;;;;;;8.18;1.98;;;15.00;99.90;;;;;;4934936;29;20088;-72
2022/07/10 01:14:58;;;;;;;6.55;2.33;;;15.10;99.90;;;;;;4934843;29;20134;-72
2022/07/10 01:17:24;;;;;;;6.32;2.35;;;15.00;99.90;;;;;;4918822;29;20476;-72
2022/07/10 01:19:49;;;;;;;5.47;1.90;;;14.90;99.90;;;;;;4937854;29;20098;-71
2022/07/10 01:22:15;;;;;;;7.15;2.20;;;14.90;99.90;;;;;;4938470;29;20019;-72
2022/07/10 01:24:41;;;;;;;9.98;2.33;;;15.00;99.90;;;;;;4938413;29;20020;-71
2022/07/10 01:27:06;;;;;;;10.07;2.00;;;15.00;99.90;;;;;;4921355;29;20357;-74
2022/07/10 01:29:32;;;;;;;8.25;2.00;;;15.00;99.90;;;;;;4938580;29;20023;-75
2022/07/10 01:32:00;;;;;;;11.27;2.22;;;14.90;99.90;;;;;;4921772;29;20028;-72
2022/07/10 01:34:26;;;;;;;7.85;2.30;;;14.90;99.90;;;;;;4938277;29;20055;-77
2022/07/10 01:36:52;;;;;;;7.13;2.38;;;14.90;99.90;;;;;;4937949;29;20559;-73
2022/07/10 01:39:17;;;;;;;7.30;2.20;;;14.90;99.90;;;;;;4937047;29;20119;-75
2022/07/10 01:41:43;;;;;;;9.40;2.35;;;14.80;99.90;;;;;;4938211;29;20031;-75
2022/07/10 01:44:08;;;;;;;4.80;1.80;;;14.90;99.90;;;;;;4938159;29;20469;-75
2022/07/10 01:46:34;;;;;;;4.53;2.00;;;14.90;99.90;;;;;;4937895;29;20387;-74
2022/07/10 01:48:59;;;;;;;5.68;1.83;;;15.00;99.90;;;;;;4920958;29;20413;-76
2022/07/10 01:51:25;;;;;;;5.65;2.10;;;14.90;99.90;;;;;;4937865;29;20119;-76
2022/07/10 01:53:50;;;;;;;6.03;2.10;;;15.20;99.90;;;;;;4920890;29;20130;-75
2022/07/10 01:56:16;;;;;;;5.78;2.78;;;14.90;99.90;;;;;;4937721;29;20024;-75
2022/07/10 01:58:41;;;;;;;6.47;2.30;;;14.80;99.90;;;;;;4937408;29;20062;-76
2022/07/10 02:01:07;;;;;;;6.90;2.85;;;14.60;99.90;;;;;;4937858;29;20031;-77
2022/07/10 02:06:17;;;;;;;8.65;2.95;;;14.40;99.90;;;;;;4937406;29;20078;-76
2022/07/10 02:08:42;;;;;;;8.52;2.78;;;14.20;99.90;;;;;;4937144;29;20059;-76
2022/07/10 02:11:08;;;;;;;10.23;2.70;;;14.20;99.90;;;;;;4937349;29;20055;-76
2022/07/10 02:13:33;;;;;;;8.30;2.72;;;14.10;99.90;;;;;;4937490;29;20111;-76
2022/07/10 02:15:59;;;;;;;7.43;2.20;;;14.20;99.90;;;;;;4937526;29;20408;-77
2022/07/10 02:18:24;;;;;;;6.10;2.55;;;14.10;99.90;;;;;;4920786;29;20024;-76
2022/07/10 02:20:51;;;;;;;12.32;3.22;;;14.10;99.90;;;;;;4920071;29;20032;-76
2022/07/10 02:23:16;;;;;;;8.52;2.80;;;14.00;99.90;;;;;;4937103;29;20036;-75
2022/07/10 02:25:42;;;;;;;7.13;3.30;;;14.00;99.90;;;;;;4937374;29;20023;-76
2022/07/10 02:28:10;;;;;;;6.15;2.28;;;13.90;99.90;;;;;;4919822;29;20388;-75
2022/07/10 02:30:36;;;;;;;2.42;1.60;;;13.80;99.90;;;;;;4920057;29;20039;-76
2022/07/10 02:33:01;;;;;;;8.13;2.40;;;13.70;99.90;;;;;;4937581;29;20024;-76
2022/07/10 02:35:27;;;;;;;8.48;1.92;;;13.70;99.90;;;;;;4920159;29;20039;-76
2022/07/10 02:37:52;;;;;;;12.77;3.00;;;13.60;99.90;;;;;;4936981;29;20058;-76
2022/07/10 02:40:18;;;;;;;4.18;2.28;;;13.60;99.90;;;;;;4937002;29;20027;-76
2022/07/10 02:42:43;;;;;;;5.07;2.70;;;13.60;99.90;;;;;;4936842;29;20023;-76
2022/07/10 02:45:09;;;;;;;11.73;2.97;;;13.40;99.90;;;;;;4937128;29;20032;-73
2022/07/10 02:47:35;;;;;;;12.20;3.13;;;13.50;99.90;;;;;;4937165;29;20424;-74
2022/07/10 02:50:00;;;;;;;6.95;2.42;;;13.50;99.90;;;;;;4919779;29;20023;-75
2022/07/10 02:52:26;;;;;;;8.35;2.30;;;13.50;99.90;;;;;;4936767;29;20028;-74
2022/07/10 02:54:51;;;;;;;15.48;2.75;;;13.70;99.90;;;;;;4936788;29;20032;-74
2022/07/10 02:57:17;;;;;;;9.13;2.70;;;13.80;99.90;;;;;;4919852;29;20453;-75
2022/07/10 02:59:42;;;;;;;6.65;2.72;;;13.80;99.90;;;;;;4936593;29;20491;-75
2022/07/10 03:02:08;;;;;;;13.32;3.50;;;13.80;99.90;;;;;;4936184;29;20083;-74
2022/07/10 03:04:33;;;;;;;8.95;3.35;;;13.80;99.90;;;;;;4936637;29;20020;-74
2022/07/10 03:06:59;;;;;;;9.75;2.42;;;13.80;99.90;;;;;;4936502;29;20527;-74
2022/07/10 03:09:25;;;;;;;7.63;2.20;;;13.80;99.90;;;;;;4936257;29;20023;-77
2022/07/10 03:11:51;;;;;;;7.18;2.35;;;13.80;99.90;;;;;;4936418;29;20028;-76
2022/07/10 03:14:17;;;;;;;6.65;2.53;;;13.80;99.90;;;;;;4935911;29;20472;-77
2022/07/10 03:16:42;;;;;;;4.88;2.20;;;13.90;99.90;;;;;;4919446;29;20062;-75
2022/07/10 03:19:08;;;;;;;6.25;2.08;;;13.90;99.90;;;;;;4919638;29;20051;-75
2022/07/10 03:21:34;;;;;;;8.23;2.53;;;13.90;99.90;;;;;;4920757;29;20751;-75
2022/07/10 03:23:59;;;;;;;15.82;2.83;;;13.90;99.90;;;;;;4919425;29;20023;-75
2022/07/10 03:26:25;;;;;;;9.23;2.63;;;13.80;99.90;;;;;;4936340;29;20028;-77
2022/07/10 03:28:50;;;;;;;8.13;2.70;;;13.80;99.90;;;;;;4919116;29;20024;-77
2022/07/10 03:31:16;;;;;;;9.73;2.90;;;13.80;99.90;;;;;;4919347;29;20074;-77
2022/07/10 03:33:41;;;;;;;9.77;3.08;;;13.70;99.90;;;;;;4935971;29;20031;-75
2022/07/10 03:36:07;;;;;;;10.10;2.88;;;13.70;99.90;;;;;;4936296;29;20439;-77
2022/07/10 03:38:32;;;;;;;10.63;3.33;;;13.60;99.90;;;;;;4919003;29;20035;-74
2022/07/10 03:40:58;;;;;;;9.30;3.10;;;13.50;99.90;;;;;;4934124;29;20028;-77
2022/07/10 03:43:24;;;;;;;6.97;2.67;;;13.50;99.90;;;;;;4935913;29;20034;-74
2022/07/10 03:45:50;;;;;;;8.38;3.20;;;13.40;99.90;;;;;;4935594;29;20020;-74
2022/07/10 03:48:16;;;;;;;13.43;3.90;;;13.40;99.90;;;;;;4936177;29;20163;-75
2022/07/10 03:50:41;;;;;;;7.18;2.80;;;13.30;99.90;;;;;;4919177;29;20578;-75
2022/07/10 03:53:07;;;;;;;26.25;4.28;;;13.30;99.90;;;;;;4918750;29;20099;-75
2022/07/10 03:55:32;;;;;;;11.20;3.30;;;13.20;99.90;;;;;;4919083;29;20229;-75
2022/07/10 03:57:59;;;;;;;11.52;3.72;;;13.20;99.90;;;;;;4935636;29;20118;-76
2022/07/10 04:00:25;;;;;;;8.43;3.20;;;13.20;99.90;;;;;;4935932;29;20027;-76
2022/07/10 04:02:57;;;;;;;10.23;3.50;;;13.10;99.90;;;;;;4918676;29;20385;-75
2022/07/10 04:05:23;;;;;;;8.40;3.33;;;13.20;99.90;;;;;;4918942;29;20031;-75
2022/07/10 04:07:49;;;;;;;9.93;3.50;;;13.30;99.90;;;;;;4935567;29;20036;-75
2022/07/10 04:10:15;;;;;;;10.48;3.67;;;13.30;99.90;;;;;;4935555;29;20054;-74
2022/07/10 04:12:40;;;;;;;15.27;3.67;;;13.20;99.90;;;;;;4935644;29;20032;-75
2022/07/10 04:15:06;;;;;;;10.32;3.28;;;13.30;99.90;;;;;;4918296;29;20052;-75
2022/07/10 04:17:32;;;;;;;8.50;2.90;;;13.30;99.90;;;;;;4918765;29;20035;-75
2022/07/10 04:19:59;;;;;;;7.30;2.47;;;13.40;99.90;;;;;;4918704;29;20111;-75
2022/07/10 04:22:24;;;;;;;9.27;2.60;;;13.70;99.90;;;;;;4935477;29;20031;-75
2022/07/10 04:24:53;;;;;;;9.95;3.33;;;14.00;99.90;;;;;;4918689;29;20027;-75
2022/07/10 04:27:19;;;;;;;7.40;2.88;;;14.10;99.90;;;;;;4935691;29;20082;-75
2022/07/10 04:29:45;;;;;;;6.80;2.35;;;14.20;99.90;;;;;;4935370;29;20099;-75
2022/07/10 04:32:10;;;;;;;5.88;2.45;;;14.00;99.90;;;;;;4935743;29;20024;-75
2022/07/10 04:34:36;;;;;;;8.35;3.13;;;13.90;99.90;;;;;;4935759;29;20103;-75
2022/07/10 04:37:01;;;;;;;7.57;2.20;;;13.90;99.90;;;;;;4918710;29;20031;-75
2022/07/10 04:39:27;;;;;;;8.18;3.80;;;14.00;99.90;;;;;;4935413;29;20023;-76
2022/07/10 04:41:52;;;;;;;7.55;3.30;;;14.20;99.90;;;;;;4935400;29;20421;-77
2022/07/10 04:44:18;;;;;;;16.05;3.90;;;14.30;99.90;;;;;;4931464;29;20370;-76
2022/07/10 04:46:44;;;;;;;7.00;3.30;;;14.50;99.90;;;;;;4934972;29;20513;-76
2022/07/10 04:49:09;;;;;;;8.35;2.97;;;14.30;99.90;;;;;;4935447;29;20039;-76
2022/07/10 04:51:35;;;;;;;7.72;3.15;;;14.20;99.90;;;;;;4935338;29;20035;-76
2022/07/10 04:54:00;;;;;;;11.48;3.05;;;14.30;99.90;;;;;;4938872;29;20027;-74
2022/07/10 04:56:26;;;;;;;7.50;3.40;;;14.30;99.90;;;;;;4938197;29;20036;-75
2022/07/10 04:58:52;;;;;;;19.30;6.40;;;14.30;99.90;;;;;;4939001;29;20111;-73
2022/07/10 05:01:17;;;;;;;21.42;6.35;;;14.60;99.90;;;;;;4937663;29;20244;-75
2022/07/10 05:03:43;;;;;;;11.18;4.45;;;14.70;99.90;;;;;;4930372;29;20043;-73
2022/07/10 05:06:08;;;;;;;13.13;4.60;;;14.60;99.90;;;;;;4919998;29;20024;-74
2022/07/10 05:08:34;;;;;;;12.70;4.10;;;14.70;99.90;;;;;;4916746;29;20083;-75
2022/07/10 05:10:59;;;;;;;14.30;5.18;;;15.30;99.90;;;;;;4938789;29;20027;-75
2022/07/10 05:13:25;;;;;;;12.40;3.72;;;15.40;99.90;;;;;;4921653;29;20381;-75
2022/07/10 05:15:51;;;;;;;12.18;3.70;;;15.60;99.90;;;;;;4938774;29;20027;-74
2022/07/10 05:18:16;;;;;;;13.30;3.97;;;15.90;99.90;;;;;;4938525;29;20039;-75
2022/07/10 05:20:43;;;;;;;27.92;7.35;;;16.00;99.90;;;;;;4932838;29;20157;-74
2022/07/10 05:23:09;;;;;;;11.18;3.80;;;16.20;99.90;;;;;;4921775;29;20027;-74
2022/07/10 05:25:37;;;;;;;8.65;2.97;;;16.00;99.90;;;;;;4938610;29;20501;-74
2022/07/10 05:28:04;;;;;;;11.10;3.38;;;16.20;99.90;;;;;;4921792;29;20051;-74
2022/07/10 05:30:30;;;;;;;18.48;4.82;;;16.60;99.90;;;;;;4938624;29;20106;-74
2022/07/10 05:32:55;;;;;;;13.48;3.95;;;16.30;99.90;;;;;;4938358;29;20059;-75
2022/07/10 05:35:21;;;;;;;9.25;3.42;;;16.50;99.90;;;;;;4938480;29;20038;-75
2022/07/10 05:37:46;;;;;;;11.60;4.03;;;16.50;99.90;;;;;;4938225;29;20079;-75
2022/07/10 05:40:12;;;;;;;9.23;2.75;;;16.80;99.90;;;;;;4938352;29;20023;-75
2022/07/10 05:42:38;;;;;;;6.88;2.95;;;16.90;99.90;;;;;;4937851;29;20032;-75
2022/07/10 05:45:05;;;;;;;9.35;3.20;;;17.00;99.90;;;;;;4938223;29;20028;-75
2022/07/10 05:47:31;;;;;;;8.65;2.42;;;16.30;99.90;;;;;;4938352;29;20119;-74
2022/07/10 05:49:56;;;;;;;5.95;3.40;;;16.30;99.90;;;;;;4937426;29;20657;-74
2022/07/10 05:52:22;;;;;;;8.98;3.75;;;16.80;99.90;;;;;;4937168;29;20034;-74
2022/07/10 05:54:47;;;;;;;17.13;3.83;;;16.50;99.90;;;;;;4937420;29;20051;-74
2022/07/10 05:57:13;;;;;;;13.77;3.92;;;16.60;99.90;;;;;;4937584;29;20469;-74
2022/07/10 05:59:38;;;;;;;14.40;4.55;;;16.70;99.90;;;;;;4935992;29;20392;-74
2022/07/10 06:02:04;;;;;;;17.02;5.22;;;16.60;99.90;;;;;;4937694;29;20035;-72
2022/07/10 06:04:30;;;;;;;20.25;7.30;;;16.40;99.90;;;;;;4936815;29;20020;-74
2022/07/10 06:06:55;;;;;;;10.05;4.80;;;16.80;99.90;;;;;;4920880;29;20031;-75
2022/07/10 06:09:21;;;;;;;16.83;6.75;;;16.90;99.90;;;;;;4937751;29;20024;-75
2022/07/10 06:11:49;;;;;;;10.35;3.28;;;16.70;99.90;;;;;;4936458;29;20115;-78
2022/07/10 06:14:14;;;;;;;12.75;5.30;;;16.60;99.90;;;;;;4918981;29;20504;-77
2022/07/10 06:16:40;;;;;;;24.48;9.27;;;16.40;99.90;;;;;;4937679;29;20071;-78
2022/07/10 06:19:05;;;;;;;24.90;9.43;;;16.50;99.90;;;;;;4937177;29;20063;-78
2022/07/10 06:21:31;;;;;;;7.00;2.72;;;16.50;99.90;;;;;;4919841;29;20453;-79
2022/07/10 06:23:56;;;;;;;10.45;4.80;;;16.30;99.90;;;;;;4935540;29;20042;-77
2022/07/10 06:26:22;;;;;;;11.68;4.47;;;16.20;99.90;;;;;;4935942;29;20445;-77
2022/07/10 06:28:47;;;;;;;12.55;4.82;;;16.10;99.90;;;;;;4936225;29;20480;-77
2022/07/10 06:31:13;;;;;;;11.23;4.53;;;16.10;99.90;;;;;;4919697;29;20400;-77
2022/07/10 06:33:39;;;;;;;10.48;4.10;;;16.00;99.90;;;;;;4920088;29;20034;-77
2022/07/10 06:36:05;;;;;;;8.98;3.60;;;16.00;99.90;;;;;;4920529;29;20530;-78
2022/07/10 06:38:30;;;;;;;11.70;3.72;;;16.00;99.90;;;;;;4936704;29;20075;-78
2022/07/10 06:40:56;;;;;;;10.88;3.85;;;16.00;99.90;;;;;;4936850;29;20413;-78
2022/07/10 06:43:21;;;;;;;13.63;4.85;;;16.10;99.90;;;;;;4929904;29;20515;-78
2022/07/10 06:45:47;;;;;;;11.35;5.43;;;16.00;99.90;;;;;;4936598;29;20051;-78
2022/07/10 06:48:12;;;;;;;12.68;5.90;;;16.00;99.90;;;;;;4915247;29;20122;-78
2022/07/10 06:50:38;;;;;;;9.13;4.20;;;15.90;99.90;;;;;;4936687;29;20035;-77
2022/07/10 06:53:06;;;;;;;13.40;4.40;;;16.00;99.90;;;;;;4930953;29;20027;-81
2022/07/10 06:55:35;;;;;;;6.07;3.13;;;16.00;99.90;;;;;;4915152;29;20043;-78
2022/07/10 06:58:01;;;;;;;15.45;4.00;;;16.10;99.90;;;;;;4919530;29;20369;-79
2022/07/10 07:00:27;;;;;;;15.07;4.15;;;16.10;99.90;;;;;;4919644;29;20031;-78
2022/07/10 07:02:53;;;;;;;13.82;3.80;;;16.00;99.90;;;;;;4919596;29;20028;-78
2022/07/10 07:05:18;;;;;;;12.50;4.45;;;16.20;99.90;;;;;;4918458;29;20124;-77
2022/07/10 07:07:44;;;;;;;8.65;3.22;;;16.10;99.90;;;;;;4936330;29;20115;-78
2022/07/10 07:10:09;;;;;;;10.52;2.88;;;16.20;99.90;;;;;;4918969;29;20024;-76
2022/07/10 07:12:35;;;;;;;11.95;3.60;;;17.10;99.90;;;;;;4921675;29;20107;-79
2022/07/10 07:15:00;;;;;;;18.42;3.92;;;17.90;99.90;;;;;;4918597;29;20461;-71
2022/07/10 07:17:33;;;;;;;9.00;2.92;;;16.80;99.90;;;;;;4935295;29;20044;-71
2022/07/10 07:25:27;;;;;;;9.18;2.90;;;17.30;99.90;;;;;;4926188;29;20087;-71
2022/07/10 07:27:53;;;;;;;11.48;4.28;;;17.30;99.90;;;;;;4935964;29;20381;-83
2022/07/10 07:30:18;;;;;;;10.52;3.03;;;17.60;99.90;;;;;;4915842;29;20035;-78
2022/07/10 07:32:45;;;;;;;8.23;3.50;;;16.90;99.90;;;;;;4918811;29;20662;-78
2022/07/10 07:35:10;;;;;;;8.40;3.15;;;16.90;99.90;;;;;;4921229;29;20477;-80
2022/07/10 07:37:40;;;;;;;10.50;4.53;;;16.90;99.90;;;;;;4913210;29;20073;-78
2022/07/10 07:40:08;;;;;;;12.13;5.18;;;16.50;99.90;;;;;;4915385;29;20043;-74
2022/07/10 07:42:36;;;;;;;11.50;5.03;;;16.30;99.90;;;;;;4932561;29;20043;-80
2022/07/10 07:45:06;;;;;;;9.30;3.90;;;17.50;99.90;;;;;;4918591;29;20048;-81
2022/07/10 07:47:59;;;;;;;9.00;3.88;;;16.10;99.90;;;;;;4934773;29;20054;-81
2022/07/10 07:50:26;;;;;;;15.77;3.95;;;16.00;99.90;;;;;;4900655;29;20028;-78
2022/07/10 07:52:52;;;;;;;13.00;4.07;;;15.90;99.90;;;;;;4926643;29;20091;-77
2022/07/10 07:55:18;;;;;;;10.48;4.55;;;15.90;99.90;;;;;;4917885;29;20035;-78
2022/07/10 07:57:44;;;;;;;9.77;3.75;;;16.20;99.90;;;;;;4936403;29;20035;-78
2022/07/10 08:00:11;;;;;;;10.15;4.55;;;16.30;99.90;;;;;;4921347;29;20023;-79
2022/07/10 08:02:36;;;;;;;9.68;4.78;;;16.50;99.90;;;;;;4931014;29;20846;-78
2022/07/10 08:05:02;;;;;;;14.15;6.07;;;16.30;99.90;;;;;;4940297;29;20051;-78
2022/07/10 08:07:43;;;;;;;14.88;6.45;;;16.20;99.90;;;;;;4935492;29;20019;-78
2022/07/10 08:10:30;;;;;;;8.25;3.75;;;16.10;99.90;;;;;;4933740;29;20040;-79
2022/07/10 08:13:10;;;;;;;9.27;4.13;;;16.30;99.90;;;;;;4934657;29;20067;-79
2022/07/10 08:15:36;;;;;;;10.00;3.63;;;17.20;99.90;;;;;;4934057;29;20036;-79
2022/07/10 08:18:03;;;;;;;11.80;4.13;;;16.20;99.90;;;;;;4915109;29;20031;-78
2022/07/10 08:20:29;;;;;;;7.68;3.25;;;16.40;99.90;;;;;;4934062;29;20507;-78
2022/07/10 08:23:10;;;;;;;13.88;3.90;;;16.20;99.90;;;;;;4918076;29;20024;-79
2022/07/10 08:25:36;;;;;;;12.63;4.70;;;16.10;99.90;;;;;;4934269;29;20055;-80
2022/07/10 08:28:05;;;;;;;12.68;2.78;;;15.90;99.90;;;;;;4939780;29;20377;-80
2022/07/10 08:31:27;;;;;;;9.35;4.15;;;15.60;99.90;;;;;;4941186;29;20039;-81
2022/07/10 08:33:52;;;;;;;15.27;4.20;;;16.30;99.90;;;;;;4923016;29;20039;-79
2022/07/10 08:36:18;;;;;;;12.20;3.35;;;15.40;99.90;;;;;;4924415;29;20043;-79
2022/07/10 08:38:43;;;;;;;18.58;3.53;;;15.30;99.90;;;;;;4921475;29;20032;-73
2022/07/10 08:41:09;;;;;;;8.85;3.05;;;15.30;99.90;;;;;;4939827;29;20461;-72
2022/07/10 08:43:35;;;;;;;5.90;3.10;;;15.50;99.90;;;;;;4923209;29;20472;-72
2022/07/10 08:46:01;;;;;;;9.57;3.70;;;15.70;99.90;;;;;;4924371;29;20050;-73
2022/07/10 08:48:26;;;;;;;11.73;3.33;;;16.00;99.90;;;;;;4921155;29;20503;-72
2022/07/10 08:50:53;;;;;;;7.05;3.38;;;15.80;99.90;;;;;;4941766;29;20024;-73
2022/07/10 08:53:39;;;;;;;10.40;3.33;;;16.10;99.90;;;;;;4960647;28;20033;-72
2022/07/10 08:56:05;;;;;;;13.32;3.60;;;16.50;99.90;;;;;;4929624;29;20127;-76
2022/07/10 08:58:31;;;;;;;14.48;3.17;;;16.60;99.90;;;;;;4921904;29;20490;-77
2022/07/10 09:00:56;;;;;;;13.27;3.78;;;16.80;99.90;;;;;;4908739;29;20036;-76
2022/07/10 09:03:22;;;;;;;8.98;2.95;;;17.20;99.90;;;;;;4921991;29;20065;-76
2022/07/10 09:05:47;;;;;;;8.55;3.38;;;17.10;99.90;;;;;;4939200;29;20106;-78
2022/07/10 09:08:28;;;;;;;10.57;3.42;;;17.00;99.90;;;;;;4940688;29;20107;-76
2022/07/10 09:11:12;;;;;;;10.68;4.20;;;17.00;99.90;;;;;;4924261;29;20027;-75
2022/07/10 09:13:55;;;;;;;7.13;4.00;;;16.60;99.90;;;;;;4940640;29;20079;-75
2022/07/10 09:16:32;;;;;;;10.07;4.10;;;16.50;99.90;;;;;;4941249;29;20024;-76
2022/07/10 09:19:13;;;;;;;7.70;3.45;;;16.90;99.90;;;;;;4924165;29;20052;-75
2022/07/10 09:21:39;;;;;;;11.98;5.50;;;17.80;99.90;;;;;;4925416;29;20119;-75
2022/07/10 09:24:07;;;;;;;6.75;3.60;;;17.80;99.90;;;;;;4940680;29;20144;-74
2022/07/10 09:26:40;;;;;;;16.90;5.25;;;18.40;99.90;;;;;;4924242;29;20043;-79
2022/07/10 10:10:18;;;;;;;7.68;4.30;;;19.10;99.90;;;;;;4897923;29;20079;-81
2022/07/10 10:55:23;;;;;;;9.43;2.72;;;17.40;99.90;;;;;;4952092;28;20082;-77
2022/07/10 10:57:51;;;;;;;5.35;1.40;;;19.50;99.90;;;;;;4952859;29;20031;-75
2022/07/10 11:03:34;;;;;;;8.60;5.13;;;19.10;99.90;;;;;;4897290;29;20039;-73
2022/07/10 11:06:02;;;;;;;5.18;2.30;;;18.80;99.90;;;;;;4919262;29;20023;-75
2022/07/10 11:12:00;;;;;;;4.70;2.10;;;19.90;99.90;;;;;;4951182;29;20038;-82
2022/07/10 11:14:29;;;;;;;11.55;9.18;;;19.20;99.90;;;;;;4924355;29;20039;-80
2022/07/10 11:20:18;;;;;;;4.55;2.28;;;18.20;99.90;;;;;;4932546;29;20043;-75
2022/07/10 11:22:47;;;;;;;7.43;2.70;;;18.00;99.90;;;;;;4929133;29;20023;-75
2022/07/10 11:31:57;;;;;;;7.15;3.00;;;18.10;99.90;;;;;;4939153;29;20047;-75
2022/07/10 11:34:22;;;;;;;6.82;3.25;;;18.00;99.90;;;;;;4949870;29;20015;-75
2022/07/10 11:36:48;;;;;;;5.78;2.40;;;18.00;99.90;;;;;;4922162;29;20492;-74
2022/07/10 11:39:13;;;;;;;10.23;2.97;;;18.40;99.90;;;;;;4939024;29;20536;-74
2022/07/10 11:41:44;;;;;;;4.00;2.28;;;17.90;99.90;;;;;;4923364;29;20059;-74
2022/07/10 11:44:16;;;;;;;5.32;2.50;;;18.20;99.90;;;;;;4946936;29;20058;-72
2022/07/10 11:46:44;;;;;;;7.03;2.60;;;18.70;99.90;;;;;;4935862;29;20400;-73
2022/07/10 11:49:10;;;;;;;7.05;2.78;;;19.30;99.90;;;;;;4927745;29;20095;-76
2022/07/10 11:51:37;;;;;;;9.30;1.88;;;20.10;99.90;;;;;;4938347;29;20035;-74
2022/07/10 11:54:05;;;;;;;5.43;2.40;;;20.30;99.90;;;;;;4940936;29;20411;-73
2022/07/10 11:56:35;;;;;;;9.27;3.30;;;20.20;99.90;;;;;;4940954;29;20390;-75
2022/07/10 11:59:02;;;;;;;6.32;2.05;;;20.10;99.90;;;;;;4941125;29;20031;-75
2022/07/10 12:01:30;;;;;;;6.65;2.17;;;20.00;99.90;;;;;;4942684;28;20039;-76
2022/07/10 12:04:01;;;;;;;2.50;1.90;;;20.60;99.90;;;;;;4937784;29;20031;-75
2022/07/10 12:06:27;;;;;;;8.85;2.75;;;19.30;99.90;;;;;;4937679;29;20023;-76
2022/07/10 12:08:53;;;;;;;3.20;1.95;;;19.10;99.90;;;;;;4927619;29;20115;-76
2022/07/10 12:11:20;;;;;;;6.25;2.58;;;19.00;99.90;;;;;;4935234;29;20056;-71
2022/07/10 12:13:47;;;;;;;11.65;2.83;;;18.40;99.90;;;;;;4935217;29;20031;-70
2022/07/10 12:16:13;;;;;;;10.13;3.42;;;18.20;99.90;;;;;;4918310;29;20051;-71
2022/07/10 12:18:40;;;;;;;8.70;3.03;;;18.10;99.90;;;;;;4935177;29;20024;-69
2022/07/10 12:21:05;;;;;;;9.07;3.00;;;18.10;99.90;;;;;;4918329;29;20031;-69
2022/07/10 12:23:32;;;;;;;6.78;3.45;;;18.20;99.90;;;;;;4935120;29;20078;-69
2022/07/10 12:25:58;;;;;;;3.92;3.00;;;18.30;99.90;;;;;;4918299;29;20452;-69
2022/07/10 12:28:24;;;;;;;8.10;3.85;;;18.00;99.90;;;;;;4934948;29;20023;-69
2022/07/10 12:30:49;;;;;;;9.98;4.22;;;18.00;99.90;;;;;;4947052;29;20055;-69
2022/07/10 12:33:18;;;;;;;7.53;4.28;;;17.70;99.90;;;;;;4954156;29;20077;-70
2022/07/10 12:36:01;;;;;;;10.77;7.60;;;17.80;99.90;;;;;;4945568;29;20028;-66
2022/07/10 12:38:31;;;;;;;13.70;5.93;;;17.80;99.90;;;;;;4935139;29;20023;-66
2022/07/10 12:41:10;;;;;;;15.15;6.47;;;17.90;99.90;;;;;;4946007;29;20456;-66
2022/07/10 12:43:36;;;;;;;9.75;4.10;;;18.00;99.90;;;;;;4932500;29;20116;-64
2022/07/10 12:46:08;;;;;;;8.07;4.57;;;18.30;99.90;;;;;;4948166;29;20027;-65
2022/07/10 12:48:34;;;;;;;13.25;3.88;;;18.40;99.90;;;;;;4932832;29;20012;-65
2022/07/10 12:51:22;;;;;;;7.25;2.60;;;18.70;99.90;;;;;;4934854;29;20125;-66
2022/07/10 12:53:48;;;;;;;7.35;2.88;;;19.30;99.90;;;;;;4934635;29;20087;-68
2022/07/10 12:56:36;;;;;;;6.93;2.50;;;19.90;99.90;;;;;;4934717;29;20027;-68
2022/07/10 12:59:15;;;;;;;5.20;2.83;;;20.90;99.90;;;;;;4934684;29;20035;-69
2022/07/10 13:01:42;;;;;;;6.32;2.75;;;21.00;99.90;;;;;;4918201;29;20027;-68
2022/07/10 13:04:08;;;;;;;8.73;3.40;;;21.30;99.90;;;;;;4934484;29;20023;-69
2022/07/10 13:06:35;;;;;;;8.18;3.55;;;21.90;99.90;;;;;;4934848;29;20048;-68
2022/07/10 13:09:01;;;;;;;10.15;3.03;;;22.70;98.70;;;;;;4934692;29;20030;-68
2022/07/10 13:11:27;;;;;;;9.93;3.90;;;22.00;97.50;;;;;;4917690;29;20032;-69
2022/07/10 13:13:52;;;;;;;6.82;2.55;;;22.10;97.80;;;;;;4921932;29;20024;-69
2022/07/10 13:16:18;;;;;;;5.97;2.83;;;22.80;97.70;;;;;;4938144;29;20019;-69
2022/07/10 13:18:44;;;;;;;5.85;2.38;;;22.40;96.80;;;;;;4937430;29;20027;-69
2022/07/10 13:21:10;;;;;;;11.63;3.10;;;21.80;97.10;;;;;;4920881;29;20397;-69
2022/07/10 13:23:36;;;;;;;7.55;2.33;;;21.50;98.70;;;;;;4937958;29;20102;-69
2022/07/10 13:26:02;;;;;;;5.53;2.28;;;21.70;98.30;;;;;;4937913;29;20476;-69
2022/07/10 13:28:28;;;;;;;7.47;2.22;;;22.70;98.50;;;;;;4920345;29;20114;-68
2022/07/10 13:30:54;;;;;;;6.28;2.67;;;22.70;97.60;;;;;;4937794;29;20447;-69
2022/07/10 13:33:19;;;;;;;9.75;5.88;;;22.10;96.40;;;;;;4921106;29;20042;-69
2022/07/10 13:35:45;;;;;;;7.65;2.05;;;22.20;96.60;;;;;;4938098;29;20857;-69
2022/07/10 13:38:11;;;;;;;5.97;2.53;;;21.80;97.20;;;;;;4920959;29;20460;-69
2022/07/10 13:40:36;;;;;;;5.38;2.15;;;22.40;96.80;;;;;;4920974;29;20024;-69
2022/07/10 13:43:03;;;;;;;3.22;1.70;;;22.10;96.20;;;;;;4920657;29;20047;-70
2022/07/10 13:45:38;;;;;;;2.90;1.65;;;22.30;96.20;;;;;;4921052;29;20079;-70
2022/07/10 13:48:04;;;;;;;2.58;1.75;;;22.70;94.40;;;;;;4922214;29;20476;-68
2022/07/10 13:50:29;;;;;;;3.65;1.92;;;22.30;95.20;;;;;;4920693;29;20055;-68
2022/07/10 13:52:55;;;;;;;4.72;2.10;;;22.30;94.70;;;;;;4937861;29;20024;-68
2022/07/10 13:55:20;;;;;;;5.75;1.90;;;22.70;95.60;;;;;;4920713;29;20023;-68
2022/07/10 13:57:46;;;;;;;9.07;2.58;;;22.40;95.80;;;;;;4920731;29;20030;-68
2022/07/10 14:00:11;;;;;;;7.95;3.13;;;21.70;97.00;;;;;;4920657;29;20032;-67
2022/07/10 14:02:37;;;;;;;8.52;3.17;;;21.70;96.30;;;;;;4920411;29;20388;-67
2022/07/10 14:05:03;;;;;;;6.82;2.17;;;22.40;96.70;;;;;;4920326;29;20032;-66
2022/07/10 14:07:29;;;;;;;6.15;2.35;;;21.70;96.80;;;;;;4937572;29;20028;-66
2022/07/10 14:09:54;;;;;;;7.40;2.20;;;21.60;96.80;;;;;;4937530;29;20024;-66
2022/07/10 14:12:20;;;;;;;3.10;1.63;;;21.50;97.10;;;;;;4937480;29;20028;-66
2022/07/10 14:14:46;;;;;;;4.75;2.20;;;21.60;97.60;;;;;;4937498;29;20039;-66
2022/07/10 14:17:12;;;;;;;4.63;2.20;;;21.50;97.70;;;;;;4937484;29;20033;-66
2022/07/10 14:19:37;;;;;;;6.35;2.47;;;21.90;97.10;;;;;;4931793;29;20455;-69
2022/07/10 14:22:03;;;;;;;3.25;2.17;;;21.60;97.00;;;;;;4937442;29;20051;-69
2022/07/10 14:24:29;;;;;;;4.15;2.22;;;21.60;96.20;;;;;;4933718;29;20028;-68
2022/07/10 14:26:55;;;;;;;11.27;2.95;;;21.50;97.00;;;;;;4936892;29;20069;-68
2022/07/10 14:29:20;;;;;;;6.53;2.25;;;21.80;97.90;;;;;;4937032;29;20035;-68
2022/07/10 14:32:05;;;;;;;4.32;2.28;;;20.60;98.60;;;;;;4940979;29;20102;-69